createdAt,value
2023-05-05T00:01:25.270Z,14.80
2023-05-05T00:03:52.604Z,14.81
2023-05-05T00:06:19.665Z,14.74
2023-05-05T00:08:47.228Z,14.69
2023-05-05T00:11:13.887Z,14.68
2023-05-05T00:13:40.759Z,14.66
2023-05-05T00:16:07.736Z,14.63
2023-05-05T00:18:34.514Z,14.58
2023-05-05T00:21:01.652Z,14.53
2023-05-05T00:23:28.391Z,14.43
2023-05-05T00:25:55.077Z,14.34
2023-05-05T00:28:21.995Z,14.37
2023-05-05T00:30:48.803Z,14.45
2023-05-05T00:33:15.878Z,14.44
2023-05-05T00:35:42.753Z,14.47
2023-05-05T00:38:09.548Z,14.49
2023-05-05T00:40:37.903Z,14.42
2023-05-05T00:43:05.290Z,14.36
2023-05-05T00:45:32.326Z,14.31
2023-05-05T00:48:00.892Z,14.35
2023-05-05T00:50:30.050Z,14.39
2023-05-05T00:53:00.967Z,14.22
2023-05-05T00:55:28.560Z,13.96
2023-05-05T00:57:56.918Z,13.85
2023-05-05T01:00:23.817Z,13.80
2023-05-05T01:02:51.960Z,13.90
2023-05-05T01:05:20.251Z,13.98
2023-05-05T01:08:09.514Z,14.03
2023-05-05T01:10:41.614Z,13.92
2023-05-05T01:13:20.646Z,13.90
2023-05-05T01:15:53.556Z,13.99
2023-05-05T01:18:46.460Z,14.05
2023-05-05T01:21:19.093Z,14.05
2023-05-05T01:24:28.302Z,14.13
2023-05-05T01:27:17.170Z,14.14
2023-05-05T01:30:02.376Z,14.11
2023-05-05T01:32:33.847Z,14.10
2023-05-05T01:35:03.280Z,14.03
2023-05-05T01:37:46.112Z,14.02
2023-05-05T01:40:15.672Z,14.01
2023-05-05T01:42:44.322Z,13.97
2023-05-05T01:45:13.051Z,13.95
2023-05-05T01:47:42.108Z,13.99
2023-05-05T01:50:11.530Z,13.91
2023-05-05T01:52:40.161Z,13.92
2023-05-05T01:55:09.504Z,14.00
2023-05-05T01:57:38.584Z,14.01
2023-05-05T02:00:07.409Z,13.99
2023-05-05T02:02:45.248Z,14.06
2023-05-05T02:05:14.318Z,14.05
2023-05-05T02:07:41.776Z,14.12
2023-05-05T02:10:12.211Z,14.09
2023-05-05T02:12:40.948Z,14.07
2023-05-05T02:15:10.095Z,14.03
2023-05-05T02:17:37.671Z,14.04
2023-05-05T02:20:06.979Z,14.02
2023-05-05T02:22:34.043Z,13.95
2023-05-05T02:25:01.137Z,13.79
2023-05-05T02:27:30.502Z,13.81
2023-05-05T02:30:01.680Z,13.87
2023-05-05T02:32:35.154Z,13.89
2023-05-05T02:35:12.533Z,13.88
2023-05-05T02:37:45.224Z,13.93
2023-05-05T02:40:15.290Z,13.98
2023-05-05T02:42:46.965Z,13.90
2023-05-05T02:45:20.094Z,13.83
2023-05-05T02:47:48.744Z,13.71
2023-05-05T02:50:15.839Z,13.67
2023-05-05T02:52:51.499Z,13.67
2023-05-05T02:55:20.477Z,13.69
2023-05-05T02:57:58.911Z,13.75
2023-05-05T03:00:31.956Z,13.72
2023-05-05T03:03:17.828Z,13.77
2023-05-05T03:06:18.257Z,13.79
2023-05-05T03:09:20.803Z,13.86
2023-05-05T03:11:59.073Z,13.79
2023-05-05T03:14:30.063Z,13.72
2023-05-05T03:17:00.582Z,13.80
2023-05-05T03:19:29.662Z,13.83
2023-05-05T03:22:02.901Z,13.73
2023-05-05T03:24:30.229Z,13.70
2023-05-05T03:27:03.203Z,13.73
2023-05-05T03:29:34.689Z,13.61
2023-05-05T03:32:03.256Z,13.46
2023-05-05T03:34:30.227Z,13.40
2023-05-05T03:36:59.060Z,13.41
2023-05-05T03:39:25.999Z,13.34
2023-05-05T03:41:53.549Z,13.38
2023-05-05T03:44:22.071Z,13.41
2023-05-05T03:46:48.880Z,13.48
2023-05-05T03:49:16.800Z,13.47
2023-05-05T03:51:45.780Z,13.47
2023-05-05T03:54:12.714Z,13.52
2023-05-05T03:56:39.866Z,13.55
2023-05-05T03:59:06.902Z,13.59
2023-05-05T04:01:35.283Z,13.63
2023-05-05T04:04:02.241Z,13.63
2023-05-05T04:06:29.037Z,13.68
2023-05-05T04:08:55.914Z,13.54
2023-05-05T04:11:22.759Z,13.46
2023-05-05T04:13:50.482Z,13.46
2023-05-05T04:16:18.698Z,13.49
2023-05-05T04:18:46.121Z,13.54
2023-05-05T04:21:13.169Z,13.54
2023-05-05T04:23:40.779Z,13.52
2023-05-05T04:26:07.542Z,13.43
2023-05-05T04:28:34.407Z,13.39
2023-05-05T04:31:02.590Z,13.42
2023-05-05T04:33:31.274Z,13.40
2023-05-05T04:35:58.474Z,13.37
2023-05-05T04:38:25.922Z,13.45
2023-05-05T04:40:53.324Z,13.44
2023-05-05T04:43:20.251Z,13.42
2023-05-05T04:45:55.132Z,13.46
2023-05-05T04:48:25.067Z,13.46
2023-05-05T04:50:52.070Z,13.40
2023-05-05T04:53:18.787Z,13.39
2023-05-05T04:55:45.720Z,13.36
2023-05-05T04:58:12.456Z,13.44
2023-05-05T05:00:39.233Z,13.50
2023-05-05T05:03:06.474Z,13.57
2023-05-05T05:05:33.264Z,13.60
2023-05-05T05:08:00.047Z,13.66
2023-05-05T05:10:27.044Z,13.68
2023-05-05T05:12:53.881Z,13.72
2023-05-05T05:15:20.779Z,13.77
2023-05-05T05:17:49.875Z,13.80
2023-05-05T05:20:17.355Z,13.83
2023-05-05T05:22:44.067Z,13.90
2023-05-05T05:25:15.535Z,13.93
2023-05-05T05:27:43.023Z,13.97
2023-05-05T05:30:11.054Z,13.98
2023-05-05T05:32:37.908Z,14.03
2023-05-05T05:35:05.776Z,14.11
2023-05-05T05:37:35.245Z,14.15
2023-05-05T05:40:05.125Z,14.22
2023-05-05T05:42:33.846Z,14.32
2023-05-05T05:45:00.994Z,14.37
2023-05-05T05:47:28.226Z,14.41
2023-05-05T05:49:56.323Z,14.47
2023-05-05T05:52:23.219Z,14.57
2023-05-05T05:54:50.370Z,14.66
2023-05-05T05:57:17.197Z,14.74
2023-05-05T05:59:43.972Z,14.79
2023-05-05T06:02:11.013Z,14.84
2023-05-05T06:04:37.893Z,14.93
2023-05-05T06:07:04.790Z,15.00
2023-05-05T06:09:34.287Z,15.07
2023-05-05T06:12:03.732Z,15.14
2023-05-05T06:14:31.922Z,15.27
2023-05-05T06:16:58.735Z,15.40
2023-05-05T06:19:30.612Z,15.44
2023-05-05T06:21:57.466Z,15.47
2023-05-05T06:24:24.128Z,15.50
2023-05-05T06:26:50.927Z,15.55
2023-05-05T06:29:17.694Z,15.55
2023-05-05T06:31:44.474Z,15.61
2023-05-05T06:34:11.157Z,15.68
2023-05-05T06:36:37.893Z,15.70
2023-05-05T06:39:04.587Z,15.71
2023-05-05T06:41:31.314Z,15.80
2023-05-05T06:43:58.083Z,15.82
2023-05-05T06:46:25.270Z,15.95
2023-05-05T06:48:52.032Z,15.99
2023-05-05T06:51:18.930Z,16.06
2023-05-05T06:53:45.763Z,16.09
2023-05-05T06:56:12.571Z,16.17
2023-05-05T06:58:39.311Z,16.26
2023-05-05T07:01:06.153Z,16.38
2023-05-05T07:03:32.866Z,16.40
2023-05-05T07:05:59.667Z,16.45
2023-05-05T07:08:26.323Z,16.41
2023-05-05T07:10:53.129Z,16.41
2023-05-05T07:13:19.939Z,16.42
2023-05-05T07:15:46.776Z,16.55
2023-05-05T07:18:14.418Z,16.64
2023-05-05T07:20:41.371Z,16.65
2023-05-05T07:23:08.206Z,16.68
2023-05-05T07:25:35.011Z,16.74
2023-05-05T07:28:01.936Z,16.74
2023-05-05T07:30:28.735Z,16.88
2023-05-05T07:32:55.633Z,17.08
2023-05-05T07:35:23.182Z,17.19
2023-05-05T07:37:50.100Z,17.31
2023-05-05T07:40:16.917Z,17.29
2023-05-05T07:42:43.653Z,17.31
2023-05-05T07:45:11.567Z,17.26
2023-05-05T07:47:38.397Z,17.26
2023-05-05T07:50:08.474Z,17.42
2023-05-05T07:52:46.774Z,17.56
2023-05-05T07:55:18.509Z,17.55
2023-05-05T07:57:45.205Z,17.63
2023-05-05T08:00:13.550Z,17.62
2023-05-05T08:02:41.340Z,17.60
2023-05-05T08:05:09.264Z,17.76
2023-05-05T08:07:41.030Z,17.79
2023-05-05T08:10:12.156Z,17.79
2023-05-05T08:12:40.037Z,17.81
2023-05-05T08:15:07.795Z,17.86
2023-05-05T08:17:52.995Z,18.00
2023-05-05T08:20:20.674Z,18.13
2023-05-05T08:22:50.003Z,18.21
2023-05-05T08:25:16.833Z,18.28
2023-05-05T08:27:44.690Z,18.33
2023-05-05T08:30:13.226Z,18.32
2023-05-05T08:32:40.163Z,18.43
2023-05-05T08:35:07.724Z,18.45
2023-05-05T08:37:34.892Z,18.60
2023-05-05T08:40:01.767Z,18.69
2023-05-05T08:42:38.049Z,18.69
2023-05-05T08:45:06.795Z,18.75
2023-05-05T08:47:34.954Z,18.89
2023-05-05T08:50:02.342Z,18.88
2023-05-05T08:52:32.766Z,18.94
2023-05-05T08:55:13.560Z,18.93
2023-05-05T08:57:46.445Z,18.99
2023-05-05T09:00:14.150Z,18.89
2023-05-05T09:02:42.940Z,18.90
2023-05-05T09:05:10.557Z,18.85
2023-05-05T09:07:38.417Z,18.85
2023-05-05T09:10:05.886Z,18.83
2023-05-05T09:12:32.899Z,18.80
2023-05-05T09:15:03.579Z,18.83
2023-05-05T09:17:30.535Z,18.83
2023-05-05T09:20:04.767Z,18.94
2023-05-05T09:22:36.947Z,19.03
2023-05-05T09:25:05.171Z,19.07
2023-05-05T09:27:36.341Z,19.18
2023-05-05T09:30:04.898Z,19.17
2023-05-05T09:32:43.939Z,19.15
2023-05-05T09:35:10.938Z,19.25
2023-05-05T09:37:38.674Z,19.31
2023-05-05T09:40:08.718Z,19.36
2023-05-05T09:42:37.174Z,19.43
2023-05-05T09:45:24.234Z,19.42
2023-05-05T09:47:52.016Z,19.39
2023-05-05T09:50:22.422Z,19.42
2023-05-05T09:52:59.175Z,19.50
2023-05-05T09:55:26.052Z,19.50
2023-05-05T09:57:53.266Z,19.45
2023-05-05T10:00:20.741Z,19.39
2023-05-05T10:02:47.611Z,19.41
2023-05-05T10:05:19.100Z,19.42
2023-05-05T10:07:47.677Z,19.46
2023-05-05T10:10:16.794Z,19.46
2023-05-05T10:12:46.848Z,19.54
2023-05-05T10:15:15.487Z,19.61
2023-05-05T10:20:20.667Z,19.71
2023-05-05T10:22:59.869Z,19.79
2023-05-05T10:25:33.285Z,19.84
2023-05-05T10:28:01.467Z,19.96
2023-05-05T10:30:32.278Z,20.07
2023-05-05T10:35:52.740Z,20.16
2023-05-05T10:38:20.831Z,20.11
2023-05-05T10:40:48.857Z,20.25
2023-05-05T10:43:15.827Z,20.30
2023-05-05T10:45:43.327Z,20.31
2023-05-05T10:48:22.914Z,20.37
2023-05-05T10:50:54.071Z,20.50
2023-05-05T10:53:28.874Z,20.45
2023-05-05T10:56:21.635Z,20.50
2023-05-05T10:58:59.227Z,20.55
2023-05-05T11:01:36.311Z,20.41
2023-05-05T11:04:23.321Z,20.54
2023-05-05T11:07:08.790Z,20.49
2023-05-05T11:09:54.980Z,20.57
2023-05-05T11:12:22.044Z,20.58
2023-05-05T11:15:33.609Z,20.55
2023-05-05T11:18:05.792Z,20.53
2023-05-05T11:20:37.109Z,20.50
2023-05-05T11:23:03.975Z,20.48
2023-05-05T11:25:37.212Z,20.50
2023-05-05T11:28:14.567Z,20.47
2023-05-05T11:30:56.931Z,20.41
2023-05-05T11:33:29.492Z,20.36
2023-05-05T11:36:02.710Z,20.57
2023-05-05T11:38:52.422Z,20.54
2023-05-05T11:41:32.617Z,20.64
2023-05-05T11:44:16.650Z,20.62
2023-05-05T11:46:52.624Z,20.62
2023-05-05T11:49:31.572Z,20.63
2023-05-05T11:52:07.362Z,20.92
2023-05-05T11:54:50.139Z,21.04
2023-05-05T11:57:21.205Z,21.04
2023-05-05T12:00:03.612Z,21.05
2023-05-05T12:02:31.573Z,20.92
2023-05-05T12:04:59.869Z,20.81
2023-05-05T12:07:28.966Z,20.83
2023-05-05T12:09:56.087Z,20.77
2023-05-05T12:12:35.207Z,20.78
2023-05-05T12:15:02.332Z,20.78
2023-05-05T12:17:39.836Z,20.69
2023-05-05T12:20:07.648Z,20.63
2023-05-05T12:22:34.725Z,20.74
2023-05-05T12:25:04.218Z,20.82
2023-05-05T12:27:31.092Z,20.99
2023-05-05T12:30:11.743Z,21.06
2023-05-05T12:32:39.277Z,21.11
2023-05-05T12:35:08.071Z,21.13
2023-05-05T12:37:35.727Z,21.21
2023-05-05T12:40:03.656Z,21.21
2023-05-05T12:42:32.308Z,21.20
2023-05-05T12:44:59.092Z,21.04
2023-05-05T12:47:31.529Z,21.17
2023-05-05T12:50:00.325Z,21.29
2023-05-05T12:52:42.474Z,21.25
2023-05-05T12:55:10.510Z,21.27
2023-05-05T12:57:37.708Z,21.21
2023-05-05T13:00:18.162Z,21.13
2023-05-05T13:02:45.141Z,21.12
2023-05-05T13:05:12.034Z,21.14
2023-05-05T13:07:51.870Z,21.18
2023-05-05T13:10:18.839Z,21.20
2023-05-05T13:12:45.590Z,21.10
2023-05-05T13:15:13.883Z,20.89
2023-05-05T13:17:40.711Z,21.12
2023-05-05T13:20:10.051Z,21.22
2023-05-05T13:22:38.149Z,21.34
2023-05-05T13:25:05.291Z,21.38
2023-05-05T13:27:32.245Z,21.33
2023-05-05T13:29:59.124Z,21.35
2023-05-05T13:32:26.087Z,21.34
2023-05-05T13:34:53.119Z,21.50
2023-05-05T13:37:20.092Z,21.58
2023-05-05T13:39:46.819Z,21.59
2023-05-05T13:42:13.680Z,21.48
2023-05-05T13:44:40.573Z,21.41
2023-05-05T13:47:07.613Z,21.28
2023-05-05T13:49:35.815Z,21.07
2023-05-05T13:52:03.186Z,21.05
2023-05-05T13:54:29.893Z,20.79
2023-05-05T13:56:57.892Z,20.94
2023-05-05T13:59:25.899Z,21.08
2023-05-05T14:01:52.761Z,21.27
2023-05-05T14:04:19.515Z,21.37
2023-05-05T14:06:46.328Z,21.29
2023-05-05T14:09:13.277Z,21.29
2023-05-05T14:11:40.074Z,21.35
2023-05-05T14:14:07.022Z,21.16
2023-05-05T14:16:33.905Z,21.17
2023-05-05T14:19:01.900Z,21.13
2023-05-05T14:21:28.670Z,21.12
2023-05-05T14:23:55.439Z,21.16
2023-05-05T14:26:22.262Z,21.30
2023-05-05T14:28:50.504Z,21.27
2023-05-05T14:31:17.957Z,21.14
2023-05-05T14:33:44.722Z,21.17
2023-05-05T14:36:11.654Z,21.10
2023-05-05T14:38:38.493Z,21.16
2023-05-05T14:41:05.601Z,21.23
2023-05-05T14:43:32.698Z,21.15
2023-05-05T14:46:00.467Z,21.07
2023-05-05T14:48:27.879Z,21.19
2023-05-05T14:50:54.704Z,21.29
2023-05-05T14:53:21.447Z,21.28
2023-05-05T14:55:48.320Z,21.24
2023-05-05T14:58:15.177Z,21.21
2023-05-05T15:00:42.076Z,21.19
2023-05-05T15:03:08.980Z,21.16
2023-05-05T15:05:35.773Z,21.27
2023-05-05T15:08:02.523Z,21.31
2023-05-05T15:10:29.470Z,21.37
2023-05-05T15:12:56.547Z,21.37
2023-05-05T15:15:26.361Z,21.35
2023-05-05T15:17:53.184Z,21.32
2023-05-05T15:20:19.891Z,21.36
2023-05-05T15:22:49.033Z,21.39
2023-05-05T15:25:16.527Z,21.08
2023-05-05T15:28:08.499Z,21.11
2023-05-05T15:30:35.502Z,21.24
2023-05-05T15:33:02.307Z,21.23
2023-05-05T15:35:29.187Z,21.27
2023-05-05T15:37:55.923Z,21.36
2023-05-05T15:40:23.042Z,21.34
2023-05-05T15:42:52.709Z,21.32
2023-05-05T15:45:19.578Z,21.26
2023-05-05T15:47:46.414Z,21.27
2023-05-05T15:50:14.131Z,21.28
2023-05-05T15:52:40.792Z,21.08
2023-05-05T15:55:08.648Z,20.90
2023-05-05T15:57:35.745Z,21.04
2023-05-05T16:00:02.695Z,21.10
2023-05-05T16:02:34.448Z,21.09
2023-05-05T16:05:01.350Z,21.11
2023-05-05T16:07:28.114Z,21.10
2023-05-05T16:09:55.053Z,21.05
2023-05-05T16:12:21.812Z,20.99
2023-05-05T16:14:48.649Z,20.87
2023-05-05T16:17:15.367Z,20.76
2023-05-05T16:19:42.161Z,20.72
2023-05-05T16:22:09.084Z,20.80
2023-05-05T16:24:35.918Z,20.83
2023-05-05T16:27:02.727Z,20.72
2023-05-05T16:29:29.714Z,20.68
2023-05-05T16:31:56.479Z,20.60
2023-05-05T16:34:23.367Z,20.48
2023-05-05T16:36:50.079Z,20.53
2023-05-05T16:39:17.116Z,20.53
2023-05-05T16:41:43.815Z,20.51
2023-05-05T16:44:10.545Z,20.52
2023-05-05T16:46:37.658Z,20.47
2023-05-05T16:49:04.727Z,20.49
2023-05-05T16:51:31.638Z,20.39
2023-05-05T16:53:58.352Z,20.34
2023-05-05T16:56:25.113Z,20.27
2023-05-05T16:58:52.475Z,20.24
2023-05-05T17:01:19.203Z,20.18
2023-05-05T17:03:45.990Z,20.18
2023-05-05T17:06:13.119Z,20.17
2023-05-05T17:08:40.079Z,20.23
2023-05-05T17:11:06.848Z,20.22
2023-05-05T17:13:33.716Z,20.26
2023-05-05T17:16:00.504Z,20.20
2023-05-05T17:18:27.316Z,20.18
2023-05-05T17:20:54.076Z,20.19
2023-05-05T17:23:21.400Z,20.04
2023-05-05T17:25:48.706Z,19.95
2023-05-05T17:28:17.261Z,19.90
2023-05-05T17:30:44.128Z,19.91
2023-05-05T17:33:11.005Z,19.79
2023-05-05T17:35:38.009Z,19.68
2023-05-05T17:38:04.934Z,19.54
2023-05-05T17:40:31.666Z,19.48
2023-05-05T17:42:58.471Z,19.35
2023-05-05T17:45:25.216Z,19.24
2023-05-05T17:47:52.046Z,19.19
2023-05-05T17:50:18.943Z,19.09
2023-05-05T17:52:46.572Z,19.06
2023-05-05T17:55:13.618Z,19.04
2023-05-05T17:57:40.497Z,19.00
2023-05-05T18:00:08.946Z,18.95
2023-05-05T18:02:42.057Z,18.93
2023-05-05T18:05:10.049Z,18.90
2023-05-05T18:07:38.690Z,18.90
2023-05-05T18:10:07.267Z,18.86
2023-05-05T18:12:34.381Z,18.77
2023-05-05T18:15:01.706Z,18.77
2023-05-05T18:17:28.526Z,18.72
2023-05-05T18:19:55.296Z,18.67
2023-05-05T18:22:22.048Z,18.63
2023-05-05T18:24:48.923Z,18.62
2023-05-05T18:27:16.021Z,18.59
2023-05-05T18:29:42.830Z,18.57
2023-05-05T18:32:09.598Z,18.50
2023-05-05T18:34:36.347Z,18.41
2023-05-05T18:37:03.064Z,18.37
2023-05-05T18:39:30.376Z,18.33
2023-05-05T18:41:57.119Z,18.26
2023-05-05T18:44:23.988Z,18.23
2023-05-05T18:46:51.511Z,18.21
2023-05-05T18:49:18.309Z,18.17
2023-05-05T18:51:55.325Z,18.21
2023-05-05T18:54:32.599Z,18.14
2023-05-05T18:56:59.434Z,18.08
2023-05-05T18:59:26.361Z,18.07
2023-05-05T19:01:54.986Z,18.05
2023-05-05T19:04:31.429Z,17.99
2023-05-05T19:06:59.611Z,17.92
2023-05-05T19:09:26.461Z,17.91
2023-05-05T19:11:53.514Z,17.88
2023-05-05T19:14:20.365Z,17.80
2023-05-05T19:16:47.261Z,17.78
2023-05-05T19:19:14.418Z,17.72
2023-05-05T19:21:41.325Z,17.69
2023-05-05T19:24:09.426Z,17.59
2023-05-05T19:26:36.390Z,17.58
2023-05-05T19:29:03.358Z,17.59
2023-05-05T19:31:31.408Z,17.57
2023-05-05T19:34:01.275Z,17.55
2023-05-05T19:36:28.525Z,17.44
2023-05-05T19:38:56.275Z,17.42
2023-05-05T19:41:23.586Z,17.37
2023-05-05T19:43:50.456Z,17.40
2023-05-05T19:46:17.711Z,17.34
2023-05-05T19:48:44.652Z,17.32
2023-05-05T19:51:11.833Z,17.31
2023-05-05T19:53:40.233Z,17.24
2023-05-05T19:56:07.516Z,17.24
2023-05-05T19:59:01.627Z,17.25
2023-05-05T20:01:29.435Z,17.26
2023-05-05T20:03:57.398Z,17.30
2023-05-05T20:06:24.649Z,17.28
2023-05-05T20:08:52.346Z,17.20
2023-05-05T20:11:20.197Z,17.20
2023-05-05T20:13:47.900Z,17.17
2023-05-05T20:16:15.075Z,17.12
2023-05-05T20:18:41.878Z,17.11
2023-05-05T20:21:08.828Z,17.12
2023-05-05T20:23:36.710Z,17.11
2023-05-05T20:26:03.641Z,17.04
2023-05-05T20:28:31.776Z,17.01
2023-05-05T20:30:58.640Z,17.01
2023-05-05T20:33:25.457Z,16.99
2023-05-05T20:35:52.182Z,16.97
2023-05-05T20:38:18.938Z,16.89
2023-05-05T20:40:45.774Z,16.82
2023-05-05T20:43:12.739Z,16.81
2023-05-05T20:45:39.477Z,16.80
2023-05-05T20:48:09.810Z,16.79
2023-05-05T20:50:40.791Z,16.73
2023-05-05T20:53:09.225Z,16.71
2023-05-05T20:55:36.177Z,16.67
2023-05-05T20:58:04.213Z,16.59
2023-05-05T21:00:31.526Z,16.41
2023-05-05T21:02:58.424Z,16.34
2023-05-05T21:05:26.048Z,16.32
2023-05-05T21:07:53.817Z,16.23
2023-05-05T21:10:21.048Z,16.23
2023-05-05T21:12:47.921Z,16.23
2023-05-05T21:15:16.616Z,16.31
2023-05-05T21:17:43.465Z,16.36
2023-05-05T21:20:10.957Z,16.41
2023-05-05T21:22:37.927Z,16.41
2023-05-05T21:25:17.842Z,16.40
2023-05-05T21:27:45.021Z,16.41
2023-05-05T21:30:12.381Z,16.44
2023-05-05T21:32:40.775Z,16.35
2023-05-05T21:35:08.719Z,16.29
2023-05-05T21:37:38.106Z,16.21
2023-05-05T21:40:06.454Z,16.21
2023-05-05T21:42:33.273Z,16.11
2023-05-05T21:45:00.007Z,16.04
2023-05-05T21:47:27.405Z,15.93
2023-05-05T21:49:54.058Z,15.93
2023-05-05T21:52:20.928Z,15.89
2023-05-05T21:54:47.825Z,15.94
2023-05-05T21:57:14.668Z,16.00
2023-05-05T21:59:41.417Z,16.06
2023-05-05T22:02:08.368Z,16.04
2023-05-05T22:04:35.169Z,16.05
2023-05-05T22:07:02.175Z,16.03
2023-05-05T22:09:28.967Z,16.06
2023-05-05T22:11:55.824Z,16.07
2023-05-05T22:14:22.670Z,16.05
2023-05-05T22:16:49.584Z,15.97
2023-05-05T22:19:16.383Z,15.97
2023-05-05T22:21:43.525Z,16.00
2023-05-05T22:24:10.345Z,16.00
2023-05-05T22:26:39.811Z,15.95
2023-05-05T22:29:06.556Z,15.92
2023-05-05T22:31:33.342Z,15.95
2023-05-05T22:34:00.189Z,15.95
2023-05-05T22:36:27.576Z,15.89
2023-05-05T22:38:54.479Z,15.82
2023-05-05T22:41:21.216Z,15.87
2023-05-05T22:43:49.256Z,15.77
2023-05-05T22:46:15.981Z,15.69
2023-05-05T22:48:43.535Z,15.59
2023-05-05T22:51:13.528Z,15.66
2023-05-05T22:53:40.526Z,15.69
2023-05-05T22:56:07.417Z,15.73
2023-05-05T22:58:34.233Z,15.76
2023-05-05T23:01:00.956Z,15.80
2023-05-05T23:03:27.679Z,15.75
2023-05-05T23:05:54.370Z,15.74
2023-05-05T23:08:21.760Z,15.72
2023-05-05T23:10:48.498Z,15.77
2023-05-05T23:13:15.243Z,15.75
2023-05-05T23:15:42.096Z,15.72
2023-05-05T23:18:09.113Z,15.72
2023-05-05T23:20:35.918Z,15.66
2023-05-05T23:23:02.790Z,15.66
2023-05-05T23:25:29.460Z,15.67
2023-05-05T23:27:56.348Z,15.63
2023-05-05T23:30:25.549Z,15.46
2023-05-05T23:32:52.552Z,15.30
2023-05-05T23:35:19.408Z,15.32
2023-05-05T23:37:46.182Z,15.33
2023-05-05T23:40:12.991Z,15.34
2023-05-05T23:42:39.775Z,15.37
2023-05-05T23:45:07.192Z,15.37
2023-05-05T23:47:34.126Z,15.33
2023-05-05T23:50:00.940Z,15.27
2023-05-05T23:52:27.917Z,15.26
2023-05-05T23:57:22.137Z,15.34
2023-05-05T23:59:48.950Z,15.30
